Terminal Aerodrome Forecast
Issued by NWS

Home | Current Version | Previous Version | Text Only | Print | Product List | Glossary On
Versions: 1 2 3 4 5 6 7 8 9 10 11 12 13 14 15 16 17 18 19 20
829
FTUS43 KGRR 301140
TAFMKG
TAF
KMKG 301140Z 3012/0112 08007KT P6SM SCT035 OVC200
     FM302000 08010KT P6SM -RA OVC060
     FM302300 07010KT 6SM -RA OVC025
     FM010100 07010KT 5SM -RA BR OVC015
     FM010600 06012KT 4SM -RA BR OVC008=

USA.gov is the U.S. government's official web portal to all federal, state and local government web resources and services.